sensor_id;sensor_type;location;lat;lon;timestamp;P1;durP1;ratioP1;P2;durP2;ratioP2
3405;SDS011;10008;48.682;9.016;2023-06-22T00:00:55;9.57;;;8.87;;
3405;SDS011;10008;48.682;9.016;2023-06-22T00:03:21;9.30;;;8.60;;
3405;SDS011;10008;48.682;9.016;2023-06-22T00:05:49;9.47;;;8.77;;
3405;SDS011;10008;48.682;9.016;2023-06-22T00:08:15;9.50;;;8.80;;
3405;SDS011;10008;48.682;9.016;2023-06-22T00:10:42;9.70;;;9.00;;
3405;SDS011;10008;48.682;9.016;2023-06-22T00:13:09;9.73;;;9.00;;
3405;SDS011;10008;48.682;9.016;2023-06-22T00:15:35;10.07;;;9.27;;
3405;SDS011;10008;48.682;9.016;2023-06-22T00:18:03;8.90;;;8.20;;
3405;SDS011;10008;48.682;9.016;2023-06-22T00:20:30;9.70;;;9.00;;
3405;SDS011;10008;48.682;9.016;2023-06-22T00:22:58;9.30;;;8.60;;
3405;SDS011;10008;48.682;9.016;2023-06-22T00:25:24;8.90;;;8.20;;
3405;SDS011;10008;48.682;9.016;2023-06-22T00:27:50;9.20;;;8.50;;
3405;SDS011;10008;48.682;9.016;2023-06-22T00:30:16;8.87;;;8.17;;
3405;SDS011;10008;48.682;9.016;2023-06-22T00:32:43;8.80;;;8.10;;
3405;SDS011;10008;48.682;9.016;2023-06-22T00:35:10;9.10;;;8.40;;
3405;SDS011;10008;48.682;9.016;2023-06-22T00:37:39;8.90;;;8.20;;
3405;SDS011;10008;48.682;9.016;2023-06-22T00:40:08;8.97;;;8.27;;
3405;SDS011;10008;48.682;9.016;2023-06-22T00:42:39;8.87;;;8.17;;
3405;SDS011;10008;48.682;9.016;2023-06-22T00:45:07;9.47;;;8.67;;
3405;SDS011;10008;48.682;9.016;2023-06-22T00:47:36;8.00;;;7.40;;
3405;SDS011;10008;48.682;9.016;2023-06-22T00:50:03;7.97;;;7.37;;
3405;SDS011;10008;48.682;9.016;2023-06-22T00:52:32;8.20;;;7.60;;
3405;SDS011;10008;48.682;9.016;2023-06-22T00:55:01;8.60;;;7.90;;
3405;SDS011;10008;48.682;9.016;2023-06-22T00:57:27;9.33;;;8.53;;
3405;SDS011;10008;48.682;9.016;2023-06-22T00:59:54;8.13;;;7.53;;
3405;SDS011;10008;48.682;9.016;2023-06-22T01:02:20;8.43;;;7.83;;
3405;SDS011;10008;48.682;9.016;2023-06-22T01:04:46;8.17;;;7.57;;
3405;SDS011;10008;48.682;9.016;2023-06-22T01:12:34;7.83;;;7.23;;
3405;SDS011;10008;48.682;9.016;2023-06-22T01:15:08;8.87;;;8.17;;
3405;SDS011;10008;48.682;9.016;2023-06-22T01:17:39;8.80;;;8.10;;
3405;SDS011;10008;48.682;9.016;2023-06-22T01:20:09;8.70;;;8.00;;
3405;SDS011;10008;48.682;9.016;2023-06-22T01:22:46;8.10;;;7.50;;
3405;SDS011;10008;48.682;9.016;2023-06-22T01:25:45;8.30;;;7.70;;
3405;SDS011;10008;48.682;9.016;2023-06-22T01:28:20;8.47;;;7.87;;
3405;SDS011;10008;48.682;9.016;2023-06-22T01:30:55;8.40;;;7.80;;
3405;SDS011;10008;48.682;9.016;2023-06-22T01:33:34;8.67;;;7.97;;
3405;SDS011;10008;48.682;9.016;2023-06-22T01:36:04;7.50;;;6.90;;
3405;SDS011;10008;48.682;9.016;2023-06-22T01:38:31;7.40;;;6.80;;
3405;SDS011;10008;48.682;9.016;2023-06-22T01:40:58;7.20;;;6.60;;
3405;SDS011;10008;48.682;9.016;2023-06-22T01:43:26;8.13;;;7.43;;
3405;SDS011;10008;48.682;9.016;2023-06-22T01:45:54;6.90;;;6.40;;
3405;SDS011;10008;48.682;9.016;2023-06-22T01:48:21;7.37;;;6.77;;
3405;SDS011;10008;48.682;9.016;2023-06-22T01:50:47;8.13;;;7.53;;
3405;SDS011;10008;48.682;9.016;2023-06-22T01:53:13;6.70;;;6.20;;
3405;SDS011;10008;48.682;9.016;2023-06-22T01:55:39;7.10;;;6.60;;
3405;SDS011;10008;48.682;9.016;2023-06-22T01:58:05;7.60;;;7.00;;
3405;SDS011;10008;48.682;9.016;2023-06-22T02:00:31;8.00;;;7.40;;
3405;SDS011;10008;48.682;9.016;2023-06-22T02:03:11;7.50;;;6.90;;
3405;SDS011;10008;48.682;9.016;2023-06-22T02:06:02;7.40;;;6.80;;
3405;SDS011;10008;48.682;9.016;2023-06-22T02:08:35;7.83;;;7.23;;
3405;SDS011;10008;48.682;9.016;2023-06-22T02:11:07;8.07;;;7.47;;
3405;SDS011;10008;48.682;9.016;2023-06-22T02:13:35;8.30;;;7.70;;
3405;SDS011;10008;48.682;9.016;2023-06-22T02:16:03;8.13;;;7.53;;
3405;SDS011;10008;48.682;9.016;2023-06-22T02:18:29;8.20;;;7.60;;
3405;SDS011;10008;48.682;9.016;2023-06-22T02:20:55;7.77;;;7.17;;
3405;SDS011;10008;48.682;9.016;2023-06-22T02:23:21;8.20;;;7.47;;
3405;SDS011;10008;48.682;9.016;2023-06-22T02:25:47;9.20;;;8.50;;
3405;SDS011;10008;48.682;9.016;2023-06-22T02:28:13;8.20;;;7.60;;
3405;SDS011;10008;48.682;9.016;2023-06-22T02:30:39;8.20;;;7.60;;
3405;SDS011;10008;48.682;9.016;2023-06-22T02:33:06;8.63;;;8.00;;
3405;SDS011;10008;48.682;9.016;2023-06-22T02:35:31;8.37;;;7.77;;
3405;SDS011;10008;48.682;9.016;2023-06-22T02:38:00;8.20;;;7.60;;
3405;SDS011;10008;48.682;9.016;2023-06-22T02:40:28;8.00;;;7.40;;
3405;SDS011;10008;48.682;9.016;2023-06-22T02:42:55;8.50;;;7.90;;
3405;SDS011;10008;48.682;9.016;2023-06-22T02:45:27;8.60;;;7.90;;
3405;SDS011;10008;48.682;9.016;2023-06-22T02:47:53;8.30;;;7.60;;
3405;SDS011;10008;48.682;9.016;2023-06-22T02:50:19;7.53;;;6.93;;
3405;SDS011;10008;48.682;9.016;2023-06-22T02:52:45;7.13;;;6.60;;
3405;SDS011;10008;48.682;9.016;2023-06-22T02:55:10;8.27;;;7.50;;
3405;SDS011;10008;48.682;9.016;2023-06-22T02:57:37;7.17;;;6.57;;
3405;SDS011;10008;48.682;9.016;2023-06-22T03:00:09;6.90;;;6.40;;
3405;SDS011;10008;48.682;9.016;2023-06-22T03:02:43;6.80;;;6.30;;
3405;SDS011;10008;48.682;9.016;2023-06-22T03:05:10;7.67;;;7.07;;
3405;SDS011;10008;48.682;9.016;2023-06-22T03:07:41;7.60;;;7.00;;
3405;SDS011;10008;48.682;9.016;2023-06-22T03:10:09;7.00;;;6.50;;
3405;SDS011;10008;48.682;9.016;2023-06-22T03:12:36;6.70;;;6.20;;
3405;SDS011;10008;48.682;9.016;2023-06-22T03:15:04;6.90;;;6.40;;
3405;SDS011;10008;48.682;9.016;2023-06-22T03:17:34;9.43;;;8.53;;
3405;SDS011;10008;48.682;9.016;2023-06-22T03:20:01;7.77;;;7.07;;
3405;SDS011;10008;48.682;9.016;2023-06-22T03:22:38;6.63;;;6.13;;
3405;SDS011;10008;48.682;9.016;2023-06-22T03:25:06;6.50;;;6.00;;
3405;SDS011;10008;48.682;9.016;2023-06-22T03:27:40;6.83;;;6.33;;
3405;SDS011;10008;48.682;9.016;2023-06-22T03:30:07;6.87;;;6.37;;
3405;SDS011;10008;48.682;9.016;2023-06-22T03:32:34;7.00;;;6.43;;
3405;SDS011;10008;48.682;9.016;2023-06-22T03:35:00;6.80;;;6.30;;
3405;SDS011;10008;48.682;9.016;2023-06-22T03:37:27;6.70;;;6.20;;
3405;SDS011;10008;48.682;9.016;2023-06-22T03:39:53;6.90;;;6.40;;
3405;SDS011;10008;48.682;9.016;2023-06-22T03:42:19;6.60;;;6.10;;
3405;SDS011;10008;48.682;9.016;2023-06-22T03:44:45;6.30;;;5.80;;
3405;SDS011;10008;48.682;9.016;2023-06-22T03:47:11;6.40;;;5.90;;
3405;SDS011;10008;48.682;9.016;2023-06-22T03:49:37;6.67;;;6.17;;
3405;SDS011;10008;48.682;9.016;2023-06-22T03:52:03;6.80;;;6.30;;
3405;SDS011;10008;48.682;9.016;2023-06-22T03:54:29;6.70;;;6.20;;
3405;SDS011;10008;48.682;9.016;2023-06-22T03:56:56;7.00;;;6.50;;
3405;SDS011;10008;48.682;9.016;2023-06-22T03:59:23;8.63;;;7.83;;
3405;SDS011;10008;48.682;9.016;2023-06-22T04:01:48;8.63;;;7.90;;
3405;SDS011;10008;48.682;9.016;2023-06-22T04:04:15;6.90;;;6.40;;
3405;SDS011;10008;48.682;9.016;2023-06-22T04:06:44;7.90;;;7.30;;
3405;SDS011;10008;48.682;9.016;2023-06-22T04:09:10;8.10;;;7.50;;
3405;SDS011;10008;48.682;9.016;2023-06-22T04:11:35;8.10;;;7.50;;
3405;SDS011;10008;48.682;9.016;2023-06-22T04:14:01;8.67;;;8.00;;
3405;SDS011;10008;48.682;9.016;2023-06-22T04:16:27;8.33;;;7.73;;
3405;SDS011;10008;48.682;9.016;2023-06-22T04:18:53;8.50;;;7.90;;
3405;SDS011;10008;48.682;9.016;2023-06-22T04:21:19;8.20;;;7.60;;
3405;SDS011;10008;48.682;9.016;2023-06-22T04:23:45;8.70;;;8.00;;
3405;SDS011;10008;48.682;9.016;2023-06-22T04:26:11;8.90;;;8.20;;
3405;SDS011;10008;48.682;9.016;2023-06-22T04:28:37;8.80;;;8.10;;
3405;SDS011;10008;48.682;9.016;2023-06-22T04:31:03;9.10;;;8.40;;
3405;SDS011;10008;48.682;9.016;2023-06-22T04:33:30;8.90;;;8.20;;
3405;SDS011;10008;48.682;9.016;2023-06-22T04:35:56;8.87;;;8.17;;
3405;SDS011;10008;48.682;9.016;2023-06-22T04:38:22;8.60;;;7.90;;
3405;SDS011;10008;48.682;9.016;2023-06-22T04:40:49;8.80;;;8.10;;
3405;SDS011;10008;48.682;9.016;2023-06-22T04:43:15;8.80;;;8.10;;
3405;SDS011;10008;48.682;9.016;2023-06-22T04:45:41;8.80;;;8.10;;
3405;SDS011;10008;48.682;9.016;2023-06-22T04:48:07;8.67;;;7.97;;
3405;SDS011;10008;48.682;9.016;2023-06-22T04:50:35;9.23;;;8.53;;
3405;SDS011;10008;48.682;9.016;2023-06-22T04:53:04;8.80;;;8.10;;
3405;SDS011;10008;48.682;9.016;2023-06-22T04:55:31;9.40;;;8.70;;
3405;SDS011;10008;48.682;9.016;2023-06-22T04:57:57;9.77;;;9.00;;
3405;SDS011;10008;48.682;9.016;2023-06-22T05:00:29;9.73;;;8.93;;
3405;SDS011;10008;48.682;9.016;2023-06-22T05:02:56;10.47;;;9.57;;
3405;SDS011;10008;48.682;9.016;2023-06-22T05:05:23;10.20;;;9.40;;
3405;SDS011;10008;48.682;9.016;2023-06-22T05:07:49;10.30;;;9.50;;
3405;SDS011;10008;48.682;9.016;2023-06-22T05:10:18;12.70;;;11.70;;
3405;SDS011;10008;48.682;9.016;2023-06-22T05:12:45;11.43;;;10.50;;
3405;SDS011;10008;48.682;9.016;2023-06-22T05:15:12;11.97;;;10.97;;
3405;SDS011;10008;48.682;9.016;2023-06-22T05:17:38;10.90;;;10.00;;
3405;SDS011;10008;48.682;9.016;2023-06-22T05:20:23;11.40;;;10.40;;
3405;SDS011;10008;48.682;9.016;2023-06-22T05:22:49;11.83;;;10.83;;
3405;SDS011;10008;48.682;9.016;2023-06-22T05:25:14;12.57;;;11.50;;
3405;SDS011;10008;48.682;9.016;2023-06-22T05:27:40;12.50;;;11.40;;
3405;SDS011;10008;48.682;9.016;2023-06-22T05:30:06;12.97;;;11.87;;
3405;SDS011;10008;48.682;9.016;2023-06-22T05:32:33;12.70;;;11.60;;
3405;SDS011;10008;48.682;9.016;2023-06-22T05:34:59;12.83;;;11.73;;
3405;SDS011;10008;48.682;9.016;2023-06-22T05:37:25;12.43;;;11.40;;
3405;SDS011;10008;48.682;9.016;2023-06-22T05:39:51;12.40;;;11.30;;
3405;SDS011;10008;48.682;9.016;2023-06-22T05:42:17;12.63;;;11.53;;
3405;SDS011;10008;48.682;9.016;2023-06-22T05:44:43;12.60;;;11.50;;
3405;SDS011;10008;48.682;9.016;2023-06-22T05:47:08;12.57;;;11.47;;
3405;SDS011;10008;48.682;9.016;2023-06-22T05:49:34;12.70;;;11.60;;
3405;SDS011;10008;48.682;9.016;2023-06-22T05:52:00;12.53;;;11.43;;
3405;SDS011;10008;48.682;9.016;2023-06-22T05:54:27;12.30;;;11.20;;
3405;SDS011;10008;48.682;9.016;2023-06-22T05:56:53;12.37;;;11.27;;
3405;SDS011;10008;48.682;9.016;2023-06-22T05:59:19;12.80;;;11.70;;
3405;SDS011;10008;48.682;9.016;2023-06-22T06:01:44;12.70;;;11.60;;
3405;SDS011;10008;48.682;9.016;2023-06-22T06:04:15;12.50;;;11.40;;
3405;SDS011;10008;48.682;9.016;2023-06-22T06:06:42;12.60;;;11.50;;
3405;SDS011;10008;48.682;9.016;2023-06-22T06:09:07;13.00;;;11.80;;
3405;SDS011;10008;48.682;9.016;2023-06-22T06:11:33;13.53;;;12.33;;
3405;SDS011;10008;48.682;9.016;2023-06-22T06:13:59;12.70;;;11.60;;
3405;SDS011;10008;48.682;9.016;2023-06-22T06:16:24;12.30;;;11.20;;
3405;SDS011;10008;48.682;9.016;2023-06-22T06:18:50;13.93;;;12.63;;
3405;SDS011;10008;48.682;9.016;2023-06-22T06:21:16;13.20;;;12.00;;
3405;SDS011;10008;48.682;9.016;2023-06-22T06:23:42;13.67;;;12.47;;
3405;SDS011;10008;48.682;9.016;2023-06-22T06:26:08;13.33;;;12.13;;
3405;SDS011;10008;48.682;9.016;2023-06-22T06:28:34;13.67;;;12.47;;
3405;SDS011;10008;48.682;9.016;2023-06-22T06:31:00;13.50;;;12.30;;
3405;SDS011;10008;48.682;9.016;2023-06-22T06:33:26;14.23;;;12.93;;
3405;SDS011;10008;48.682;9.016;2023-06-22T06:35:52;14.30;;;13.00;;
3405;SDS011;10008;48.682;9.016;2023-06-22T06:38:18;14.13;;;12.83;;
3405;SDS011;10008;48.682;9.016;2023-06-22T06:40:44;14.47;;;13.10;;
3405;SDS011;10008;48.682;9.016;2023-06-22T06:43:10;14.30;;;13.00;;
3405;SDS011;10008;48.682;9.016;2023-06-22T06:45:36;14.00;;;12.70;;
3405;SDS011;10008;48.682;9.016;2023-06-22T06:48:01;14.70;;;13.30;;
3405;SDS011;10008;48.682;9.016;2023-06-22T06:50:27;14.50;;;13.10;;
3405;SDS011;10008;48.682;9.016;2023-06-22T06:52:53;14.93;;;13.53;;
3405;SDS011;10008;48.682;9.016;2023-06-22T06:55:19;15.10;;;13.70;;
3405;SDS011;10008;48.682;9.016;2023-06-22T06:57:45;14.50;;;13.10;;
3405;SDS011;10008;48.682;9.016;2023-06-22T07:00:13;14.20;;;12.90;;
3405;SDS011;10008;48.682;9.016;2023-06-22T07:02:41;14.30;;;13.00;;
3405;SDS011;10008;48.682;9.016;2023-06-22T07:05:09;14.10;;;12.80;;
3405;SDS011;10008;48.682;9.016;2023-06-22T07:07:36;14.20;;;12.80;;
3405;SDS011;10008;48.682;9.016;2023-06-22T07:10:02;14.50;;;13.10;;
3405;SDS011;10008;48.682;9.016;2023-06-22T07:12:28;14.60;;;13.20;;
3405;SDS011;10008;48.682;9.016;2023-06-22T07:14:56;14.40;;;13.03;;
3405;SDS011;10008;48.682;9.016;2023-06-22T07:17:30;14.63;;;13.27;;
3405;SDS011;10008;48.682;9.016;2023-06-22T07:19:56;14.53;;;13.20;;
3405;SDS011;10008;48.682;9.016;2023-06-22T07:22:21;14.67;;;13.30;;
3405;SDS011;10008;48.682;9.016;2023-06-22T07:24:47;14.63;;;13.33;;
3405;SDS011;10008;48.682;9.016;2023-06-22T07:27:14;14.97;;;13.57;;
3405;SDS011;10008;48.682;9.016;2023-06-22T07:29:43;14.80;;;13.40;;
3405;SDS011;10008;48.682;9.016;2023-06-22T07:32:09;16.30;;;14.47;;
3405;SDS011;10008;48.682;9.016;2023-06-22T07:34:36;14.90;;;13.50;;
3405;SDS011;10008;48.682;9.016;2023-06-22T07:37:02;14.80;;;13.40;;
3405;SDS011;10008;48.682;9.016;2023-06-22T07:39:29;15.77;;;14.27;;
3405;SDS011;10008;48.682;9.016;2023-06-22T07:41:55;15.67;;;14.17;;
3405;SDS011;10008;48.682;9.016;2023-06-22T07:44:21;15.50;;;14.00;;
3405;SDS011;10008;48.682;9.016;2023-06-22T07:46:46;16.90;;;15.40;;
3405;SDS011;10008;48.682;9.016;2023-06-22T07:49:12;15.30;;;13.90;;
3405;SDS011;10008;48.682;9.016;2023-06-22T07:51:38;15.50;;;14.00;;
3405;SDS011;10008;48.682;9.016;2023-06-22T07:54:04;15.87;;;14.37;;
3405;SDS011;10008;48.682;9.016;2023-06-22T07:56:29;16.43;;;14.80;;
3405;SDS011;10008;48.682;9.016;2023-06-22T07:58:55;15.30;;;13.90;;
3405;SDS011;10008;48.682;9.016;2023-06-22T08:01:23;15.90;;;14.40;;
3405;SDS011;10008;48.682;9.016;2023-06-22T08:03:49;15.67;;;14.17;;
3405;SDS011;10008;48.682;9.016;2023-06-22T08:06:15;14.90;;;13.50;;
3405;SDS011;10008;48.682;9.016;2023-06-22T08:08:41;15.10;;;13.70;;
3405;SDS011;10008;48.682;9.016;2023-06-22T08:11:08;15.93;;;14.43;;
3405;SDS011;10008;48.682;9.016;2023-06-22T08:13:34;15.50;;;14.00;;
3405;SDS011;10008;48.682;9.016;2023-06-22T08:16:00;15.50;;;14.00;;
3405;SDS011;10008;48.682;9.016;2023-06-22T08:18:25;15.00;;;13.60;;
3405;SDS011;10008;48.682;9.016;2023-06-22T08:20:51;15.70;;;14.23;;
3405;SDS011;10008;48.682;9.016;2023-06-22T08:23:17;15.43;;;13.93;;
3405;SDS011;10008;48.682;9.016;2023-06-22T08:25:43;15.67;;;14.23;;
3405;SDS011;10008;48.682;9.016;2023-06-22T08:28:09;14.87;;;13.47;;
3405;SDS011;10008;48.682;9.016;2023-06-22T08:30:35;14.60;;;13.20;;
3405;SDS011;10008;48.682;9.016;2023-06-22T08:33:01;15.03;;;13.63;;
3405;SDS011;10008;48.682;9.016;2023-06-22T08:35:26;14.67;;;13.27;;
3405;SDS011;10008;48.682;9.016;2023-06-22T08:37:52;15.23;;;13.83;;
3405;SDS011;10008;48.682;9.016;2023-06-22T08:40:19;15.60;;;14.20;;
3405;SDS011;10008;48.682;9.016;2023-06-22T08:42:46;15.43;;;14.00;;
3405;SDS011;10008;48.682;9.016;2023-06-22T08:45:12;16.00;;;14.50;;
3405;SDS011;10008;48.682;9.016;2023-06-22T08:47:38;15.57;;;14.17;;
3405;SDS011;10008;48.682;9.016;2023-06-22T08:50:06;15.33;;;13.93;;
3405;SDS011;10008;48.682;9.016;2023-06-22T08:52:33;15.20;;;13.80;;
3405;SDS011;10008;48.682;9.016;2023-06-22T08:55:00;16.77;;;15.27;;
3405;SDS011;10008;48.682;9.016;2023-06-22T08:57:26;14.60;;;13.20;;
3405;SDS011;10008;48.682;9.016;2023-06-22T08:59:52;15.00;;;13.60;;
3405;SDS011;10008;48.682;9.016;2023-06-22T09:02:18;14.90;;;13.50;;
3405;SDS011;10008;48.682;9.016;2023-06-22T09:04:47;14.90;;;13.50;;
3405;SDS011;10008;48.682;9.016;2023-06-22T09:07:14;15.30;;;13.90;;
3405;SDS011;10008;48.682;9.016;2023-06-22T09:09:39;17.23;;;15.43;;
3405;SDS011;10008;48.682;9.016;2023-06-22T09:12:05;17.43;;;15.60;;
3405;SDS011;10008;48.682;9.016;2023-06-22T09:14:31;15.00;;;13.60;;
3405;SDS011;10008;48.682;9.016;2023-06-22T09:16:57;15.60;;;14.10;;
3405;SDS011;10008;48.682;9.016;2023-06-22T09:19:23;16.37;;;14.77;;
3405;SDS011;10008;48.682;9.016;2023-06-22T09:21:49;15.10;;;13.70;;
3405;SDS011;10008;48.682;9.016;2023-06-22T09:24:14;16.10;;;14.60;;
3405;SDS011;10008;48.682;9.016;2023-06-22T09:26:40;16.13;;;14.63;;
3405;SDS011;10008;48.682;9.016;2023-06-22T09:29:06;15.50;;;14.10;;
3405;SDS011;10008;48.682;9.016;2023-06-22T09:31:32;16.43;;;14.83;;
3405;SDS011;10008;48.682;9.016;2023-06-22T09:33:57;19.90;;;16.80;;
3405;SDS011;10008;48.682;9.016;2023-06-22T09:36:23;15.03;;;13.63;;
3405;SDS011;10008;48.682;9.016;2023-06-22T09:38:49;16.50;;;14.90;;
3405;SDS011;10008;48.682;9.016;2023-06-22T09:41:20;16.37;;;14.77;;
3405;SDS011;10008;48.682;9.016;2023-06-22T09:43:49;15.13;;;13.70;;
3405;SDS011;10008;48.682;9.016;2023-06-22T09:46:16;15.00;;;13.60;;
3405;SDS011;10008;48.682;9.016;2023-06-22T09:48:42;15.30;;;13.90;;
3405;SDS011;10008;48.682;9.016;2023-06-22T09:51:08;15.00;;;13.60;;
3405;SDS011;10008;48.682;9.016;2023-06-22T09:53:34;14.90;;;13.50;;
3405;SDS011;10008;48.682;9.016;2023-06-22T09:56:00;16.17;;;14.67;;
3405;SDS011;10008;48.682;9.016;2023-06-22T09:58:27;15.10;;;13.60;;
3405;SDS011;10008;48.682;9.016;2023-06-22T10:00:53;14.90;;;13.40;;
3405;SDS011;10008;48.682;9.016;2023-06-22T10:03:19;15.00;;;13.50;;
3405;SDS011;10008;48.682;9.016;2023-06-22T10:05:45;15.33;;;13.83;;
3405;SDS011;10008;48.682;9.016;2023-06-22T10:08:12;15.20;;;13.70;;
3405;SDS011;10008;48.682;9.016;2023-06-22T10:10:37;16.47;;;14.77;;
3405;SDS011;10008;48.682;9.016;2023-06-22T10:13:07;16.50;;;14.90;;
3405;SDS011;10008;48.682;9.016;2023-06-22T10:15:35;15.47;;;13.97;;
3405;SDS011;10008;48.682;9.016;2023-06-22T10:18:01;14.90;;;13.40;;
3405;SDS011;10008;48.682;9.016;2023-06-22T10:20:27;15.17;;;13.67;;
3405;SDS011;10008;48.682;9.016;2023-06-22T10:22:53;15.63;;;13.93;;
3405;SDS011;10008;48.682;9.016;2023-06-22T10:25:19;14.83;;;13.33;;
3405;SDS011;10008;48.682;9.016;2023-06-22T10:27:45;15.20;;;13.70;;
3405;SDS011;10008;48.682;9.016;2023-06-22T10:30:11;16.07;;;14.47;;
3405;SDS011;10008;48.682;9.016;2023-06-22T10:32:41;15.13;;;13.63;;
3405;SDS011;10008;48.682;9.016;2023-06-22T10:35:08;16.00;;;14.40;;
3405;SDS011;10008;48.682;9.016;2023-06-22T10:37:36;15.60;;;14.10;;
3405;SDS011;10008;48.682;9.016;2023-06-22T10:40:02;15.70;;;14.20;;
3405;SDS011;10008;48.682;9.016;2023-06-22T10:42:29;14.90;;;13.40;;
3405;SDS011;10008;48.682;9.016;2023-06-22T10:44:54;14.50;;;13.00;;
3405;SDS011;10008;48.682;9.016;2023-06-22T10:47:20;15.00;;;13.43;;
3405;SDS011;10008;48.682;9.016;2023-06-22T10:49:46;15.80;;;14.10;;
3405;SDS011;10008;48.682;9.016;2023-06-22T10:52:12;15.73;;;14.17;;
3405;SDS011;10008;48.682;9.016;2023-06-22T10:54:38;15.50;;;13.93;;
3405;SDS011;10008;48.682;9.016;2023-06-22T10:57:04;15.73;;;14.20;;
3405;SDS011;10008;48.682;9.016;2023-06-22T10:59:30;15.60;;;14.00;;
3405;SDS011;10008;48.682;9.016;2023-06-22T11:01:55;15.80;;;14.20;;
3405;SDS011;10008;48.682;9.016;2023-06-22T11:04:23;16.90;;;15.10;;
3405;SDS011;10008;48.682;9.016;2023-06-22T11:06:49;17.13;;;15.53;;
3405;SDS011;10008;48.682;9.016;2023-06-22T11:09:15;15.37;;;13.87;;
3405;SDS011;10008;48.682;9.016;2023-06-22T11:11:49;16.80;;;14.63;;
3405;SDS011;10008;48.682;9.016;2023-06-22T11:14:18;16.07;;;14.47;;
3405;SDS011;10008;48.682;9.016;2023-06-22T11:16:44;14.93;;;13.53;;
3405;SDS011;10008;48.682;9.016;2023-06-22T11:19:11;14.90;;;13.50;;
3405;SDS011;10008;48.682;9.016;2023-06-22T11:21:37;14.87;;;13.47;;
3405;SDS011;10008;48.682;9.016;2023-06-22T11:24:03;16.07;;;14.47;;
3405;SDS011;10008;48.682;9.016;2023-06-22T11:26:29;15.17;;;13.67;;
3405;SDS011;10008;48.682;9.016;2023-06-22T11:28:55;15.20;;;13.70;;
3405;SDS011;10008;48.682;9.016;2023-06-22T11:31:20;15.43;;;13.93;;
3405;SDS011;10008;48.682;9.016;2023-06-22T11:33:46;15.00;;;13.60;;
3405;SDS011;10008;48.682;9.016;2023-06-22T11:36:13;14.87;;;13.47;;
3405;SDS011;10008;48.682;9.016;2023-06-22T11:38:39;16.10;;;14.50;;
3405;SDS011;10008;48.682;9.016;2023-06-22T11:41:08;14.90;;;13.50;;
3405;SDS011;10008;48.682;9.016;2023-06-22T11:43:35;15.90;;;14.40;;
3405;SDS011;10008;48.682;9.016;2023-06-22T11:46:04;15.20;;;13.80;;
3405;SDS011;10008;48.682;9.016;2023-06-22T11:48:30;15.40;;;14.00;;
3405;SDS011;10008;48.682;9.016;2023-06-22T11:50:56;15.70;;;14.20;;
3405;SDS011;10008;48.682;9.016;2023-06-22T11:53:23;15.07;;;13.60;;
3405;SDS011;10008;48.682;9.016;2023-06-22T11:55:50;15.30;;;13.80;;
3405;SDS011;10008;48.682;9.016;2023-06-22T11:58:16;16.43;;;14.73;;
3405;SDS011;10008;48.682;9.016;2023-06-22T12:00:42;15.33;;;13.83;;
3405;SDS011;10008;48.682;9.016;2023-06-22T12:03:08;15.40;;;13.90;;
3405;SDS011;10008;48.682;9.016;2023-06-22T12:05:34;15.27;;;13.77;;
3405;SDS011;10008;48.682;9.016;2023-06-22T12:08:00;15.63;;;14.13;;
3405;SDS011;10008;48.682;9.016;2023-06-22T12:10:26;15.50;;;14.10;;
3405;SDS011;10008;48.682;9.016;2023-06-22T12:12:53;16.03;;;14.53;;
3405;SDS011;10008;48.682;9.016;2023-06-22T12:15:19;17.77;;;15.97;;
3405;SDS011;10008;48.682;9.016;2023-06-22T12:17:45;16.00;;;14.20;;
3405;SDS011;10008;48.682;9.016;2023-06-22T12:20:13;16.20;;;14.60;;
3405;SDS011;10008;48.682;9.016;2023-06-22T12:22:40;15.37;;;13.87;;
3405;SDS011;10008;48.682;9.016;2023-06-22T12:25:07;16.47;;;14.77;;
3405;SDS011;10008;48.682;9.016;2023-06-22T12:27:33;21.13;;;17.73;;
3405;SDS011;10008;48.682;9.016;2023-06-22T12:30:00;15.87;;;14.33;;
3405;SDS011;10008;48.682;9.016;2023-06-22T12:32:26;15.67;;;14.17;;
3405;SDS011;10008;48.682;9.016;2023-06-22T12:34:52;15.80;;;14.30;;
3405;SDS011;10008;48.682;9.016;2023-06-22T12:37:17;15.00;;;13.60;;
3405;SDS011;10008;48.682;9.016;2023-06-22T12:39:43;15.10;;;13.70;;
3405;SDS011;10008;48.682;9.016;2023-06-22T12:42:09;15.90;;;14.30;;
3405;SDS011;10008;48.682;9.016;2023-06-22T12:44:39;15.20;;;13.80;;
3405;SDS011;10008;48.682;9.016;2023-06-22T12:47:06;19.77;;;17.97;;
3405;SDS011;10008;48.682;9.016;2023-06-22T12:49:36;15.90;;;14.40;;
3405;SDS011;10008;48.682;9.016;2023-06-22T12:52:02;18.20;;;16.70;;
3405;SDS011;10008;48.682;9.016;2023-06-22T12:54:29;19.70;;;17.90;;
3405;SDS011;10008;48.682;9.016;2023-06-22T12:56:55;16.77;;;15.30;;
3405;SDS011;10008;48.682;9.016;2023-06-22T12:59:21;19.73;;;17.93;;
3405;SDS011;10008;48.682;9.016;2023-06-22T13:01:47;17.00;;;15.60;;
3405;SDS011;10008;48.682;9.016;2023-06-22T13:04:12;19.63;;;17.93;;
3405;SDS011;10008;48.682;9.016;2023-06-22T13:06:43;16.17;;;14.77;;
3405;SDS011;10008;48.682;9.016;2023-06-22T13:09:12;16.70;;;15.30;;
3405;SDS011;10008;48.682;9.016;2023-06-22T13:11:38;16.60;;;15.20;;
3405;SDS011;10008;48.682;9.016;2023-06-22T13:14:04;16.10;;;14.70;;
3405;SDS011;10008;48.682;9.016;2023-06-22T13:16:30;15.90;;;14.50;;
3405;SDS011;10008;48.682;9.016;2023-06-22T13:18:56;17.20;;;15.70;;
3405;SDS011;10008;48.682;9.016;2023-06-22T13:21:22;17.57;;;15.87;;
3405;SDS011;10008;48.682;9.016;2023-06-22T13:23:47;16.10;;;14.70;;
3405;SDS011;10008;48.682;9.016;2023-06-22T13:26:13;16.43;;;15.00;;
3405;SDS011;10008;48.682;9.016;2023-06-22T13:28:39;16.20;;;14.50;;
3405;SDS011;10008;48.682;9.016;2023-06-22T13:31:04;15.00;;;13.50;;
3405;SDS011;10008;48.682;9.016;2023-06-22T13:33:30;15.03;;;13.53;;
3405;SDS011;10008;48.682;9.016;2023-06-22T13:35:56;16.13;;;14.47;;
3405;SDS011;10008;48.682;9.016;2023-06-22T13:38:22;15.10;;;13.60;;
3405;SDS011;10008;48.682;9.016;2023-06-22T13:40:48;16.30;;;14.40;;
3405;SDS011;10008;48.682;9.016;2023-06-22T13:43:14;15.27;;;13.77;;
3405;SDS011;10008;48.682;9.016;2023-06-22T13:45:41;16.80;;;15.10;;
3405;SDS011;10008;48.682;9.016;2023-06-22T13:48:07;15.43;;;14.03;;
3405;SDS011;10008;48.682;9.016;2023-06-22T13:50:33;16.23;;;14.83;;
3405;SDS011;10008;48.682;9.016;2023-06-22T13:52:58;15.37;;;13.97;;
3405;SDS011;10008;48.682;9.016;2023-06-22T13:55:24;15.37;;;13.97;;
3405;SDS011;10008;48.682;9.016;2023-06-22T13:57:51;15.13;;;13.77;;
3405;SDS011;10008;48.682;9.016;2023-06-22T14:00:17;15.80;;;14.40;;
3405;SDS011;10008;48.682;9.016;2023-06-22T14:02:43;26.50;;;15.30;;
3405;SDS011;10008;48.682;9.016;2023-06-22T14:05:09;16.63;;;15.03;;
3405;SDS011;10008;48.682;9.016;2023-06-22T14:07:36;16.47;;;14.97;;
3405;SDS011;10008;48.682;9.016;2023-06-22T14:10:02;17.30;;;15.50;;
3405;SDS011;10008;48.682;9.016;2023-06-22T14:12:28;18.37;;;16.37;;
3405;SDS011;10008;48.682;9.016;2023-06-22T14:14:54;18.27;;;16.30;;
3405;SDS011;10008;48.682;9.016;2023-06-22T14:17:20;15.50;;;14.00;;
3405;SDS011;10008;48.682;9.016;2023-06-22T14:19:50;16.50;;;14.90;;
3405;SDS011;10008;48.682;9.016;2023-06-22T14:22:21;24.70;;;17.47;;
3405;SDS011;10008;48.682;9.016;2023-06-22T14:24:47;19.40;;;16.03;;
3405;SDS011;10008;48.682;9.016;2023-06-22T14:27:14;16.03;;;14.50;;
3405;SDS011;10008;48.682;9.016;2023-06-22T14:29:41;16.20;;;14.70;;
3405;SDS011;10008;48.682;9.016;2023-06-22T14:32:07;16.23;;;14.73;;
3405;SDS011;10008;48.682;9.016;2023-06-22T14:34:34;17.30;;;15.60;;
3405;SDS011;10008;48.682;9.016;2023-06-22T14:37:07;16.83;;;15.03;;
3405;SDS011;10008;48.682;9.016;2023-06-22T14:39:37;16.30;;;14.00;;
3405;SDS011;10008;48.682;9.016;2023-06-22T14:42:04;16.20;;;14.60;;
3405;SDS011;10008;48.682;9.016;2023-06-22T14:44:30;15.90;;;14.40;;
3405;SDS011;10008;48.682;9.016;2023-06-22T14:46:56;24.10;;;15.43;;